createdAt,value
2018-06-17T00:00:11.328Z,89.37
2018-06-17T00:02:43.761Z,89.86
2018-06-17T00:05:13.751Z,88.83
2018-06-17T00:07:43.283Z,89.16
2018-06-17T00:10:12.909Z,89.76
2018-06-17T00:12:42.403Z,88.95
2018-06-17T00:15:11.942Z,89.76
2018-06-17T00:17:42.727Z,89.44
2018-06-17T00:20:13.227Z,90.16
2018-06-17T00:22:45.189Z,88.78
2018-06-17T00:25:15.133Z,89.38
2018-06-17T00:27:45.727Z,89.03
2018-06-17T00:30:15.801Z,88.79
2018-06-17T00:32:46.518Z,88.11
2018-06-17T00:35:16.896Z,88.32
2018-06-17T00:37:47.580Z,88.59
2018-06-17T00:40:17.217Z,87.63
2018-06-17T00:42:46.831Z,86.24
2018-06-17T00:45:17.172Z,87.31
2018-06-17T00:47:47.338Z,87.28
2018-06-17T00:50:16.875Z,87.75
2018-06-17T00:52:47.577Z,88.11
2018-06-17T00:55:17.613Z,87.06
2018-06-17T00:57:50.759Z,87.73
2018-06-17T01:00:22.021Z,88.22
2018-06-17T01:02:51.785Z,87.83
2018-06-17T01:05:21.489Z,88.41
2018-06-17T01:07:51.557Z,88.18
2018-06-17T01:10:20.739Z,88.00
2018-06-17T01:12:50.048Z,88.17
2018-06-17T01:15:20.595Z,88.43
2018-06-17T01:17:50.141Z,88.01
2018-06-17T01:20:19.971Z,88.19
2018-06-17T01:22:49.577Z,88.40
2018-06-17T01:25:19.797Z,89.10
2018-06-17T01:27:49.417Z,89.51
2018-06-17T01:30:18.974Z,88.59
2018-06-17T01:32:48.518Z,89.69
2018-06-17T01:35:18.442Z,88.84
2018-06-17T01:37:47.943Z,88.86
2018-06-17T01:40:17.413Z,89.11
2018-06-17T01:42:46.992Z,89.51
2018-06-17T01:45:16.761Z,88.73
2018-06-17T01:47:46.397Z,89.22
2018-06-17T01:50:16.839Z,89.54
2018-06-17T01:52:46.347Z,88.89
2018-06-17T01:55:15.801Z,89.57
2018-06-17T01:57:45.348Z,90.16
2018-06-17T02:00:14.920Z,90.07
2018-06-17T02:02:44.422Z,90.14
2018-06-17T02:05:19.242Z,90.17
2018-06-17T02:07:53.919Z,89.85
2018-06-17T02:10:29.129Z,90.88
2018-06-17T02:12:58.742Z,91.53
2018-06-17T02:15:28.333Z,91.43
2018-06-17T02:17:57.874Z,92.04
2018-06-17T02:20:27.401Z,91.79
2018-06-17T02:22:56.978Z,91.66
2018-06-17T02:25:26.597Z,92.02
2018-06-17T02:27:56.119Z,91.81
2018-06-17T02:30:25.727Z,91.13
2018-06-17T02:32:55.297Z,91.20
2018-06-17T02:35:25.310Z,91.32
2018-06-17T02:37:54.875Z,91.35
2018-06-17T02:40:24.033Z,91.21
2018-06-17T02:42:54.025Z,91.10
2018-06-17T02:45:28.798Z,91.77
2018-06-17T02:48:03.523Z,91.17
2018-06-17T02:50:38.242Z,91.07
2018-06-17T02:53:12.961Z,91.22
2018-06-17T02:55:42.514Z,91.35
2018-06-17T02:58:12.100Z,92.09
2018-06-17T03:00:42.021Z,91.51
2018-06-17T03:03:11.503Z,92.22
2018-06-17T03:05:41.513Z,92.28
2018-06-17T03:08:11.353Z,91.82
2018-06-17T03:10:40.801Z,92.22
2018-06-17T03:13:11.195Z,92.80
2018-06-17T03:15:40.773Z,92.46
2018-06-17T03:18:10.262Z,92.43
2018-06-17T03:20:39.898Z,92.21
2018-06-17T03:23:09.949Z,91.90
2018-06-17T03:25:45.001Z,92.62
2018-06-17T03:28:19.954Z,92.83
2018-06-17T03:30:54.950Z,92.31
2018-06-17T03:33:29.541Z,92.07
2018-06-17T03:36:04.278Z,92.77
2018-06-17T03:38:33.898Z,92.54
2018-06-17T03:41:03.527Z,92.92
2018-06-17T03:43:32.674Z,92.48
2018-06-17T03:46:02.315Z,92.74
2018-06-17T03:48:32.095Z,92.45
2018-06-17T03:51:01.901Z,92.60
2018-06-17T03:53:31.693Z,92.10
2018-06-17T03:56:01.531Z,92.12
2018-06-17T03:58:31.034Z,91.93
2018-06-17T04:01:00.571Z,90.98
2018-06-17T04:03:30.713Z,91.53
2018-06-17T04:06:00.235Z,91.69
2018-06-17T04:08:29.520Z,91.26
2018-06-17T04:10:59.007Z,90.29
2018-06-17T04:13:28.857Z,90.34
2018-06-17T04:15:58.903Z,90.96
2018-06-17T04:18:28.573Z,90.53
2018-06-17T04:20:58.016Z,90.17
2018-06-17T04:23:27.476Z,90.55
2018-06-17T04:25:58.138Z,90.97
2018-06-17T04:28:27.335Z,90.01
2018-06-17T04:30:56.735Z,89.26
2018-06-17T04:33:26.230Z,88.54
2018-06-17T04:35:55.405Z,88.79
2018-06-17T04:38:24.851Z,88.75
2018-06-17T04:40:54.592Z,88.90
2018-06-17T04:43:24.130Z,88.38
2018-06-17T04:45:53.613Z,88.26
2018-06-17T04:48:23.170Z,88.63
2018-06-17T04:50:53.075Z,88.82
2018-06-17T04:53:22.671Z,88.65
2018-06-17T04:55:52.682Z,87.96
2018-06-17T04:58:22.304Z,88.19
2018-06-17T05:00:51.772Z,87.49
2018-06-17T05:03:21.301Z,87.02
2018-06-17T05:05:50.912Z,87.21
2018-06-17T05:08:20.731Z,87.09
2018-06-17T05:10:50.737Z,86.39
2018-06-17T05:13:20.287Z,85.81
2018-06-17T05:15:50.009Z,86.33
2018-06-17T05:18:19.244Z,85.74
2018-06-17T05:20:49.562Z,84.69
2018-06-17T05:23:19.508Z,85.35
2018-06-17T05:25:48.988Z,85.49
2018-06-17T05:28:18.506Z,85.10
2018-06-17T05:30:48.051Z,85.32
2018-06-17T05:33:18.183Z,84.03
2018-06-17T05:35:47.476Z,82.39
2018-06-17T05:38:17.109Z,81.13
2018-06-17T05:40:46.824Z,81.97
2018-06-17T05:43:16.454Z,82.25
2018-06-17T05:45:46.021Z,82.11
2018-06-17T05:48:15.478Z,79.70
2018-06-17T05:50:44.991Z,77.91
2018-06-17T05:53:14.506Z,78.93
2018-06-17T05:55:44.082Z,76.40
2018-06-17T05:58:14.253Z,75.48
2018-06-17T06:00:43.727Z,76.73
2018-06-17T06:03:13.177Z,77.21
2018-06-17T06:05:42.400Z,78.08
2018-06-17T06:08:12.007Z,78.99
2018-06-17T06:10:41.550Z,76.67
2018-06-17T06:13:11.015Z,74.85
2018-06-17T06:15:40.861Z,75.02
2018-06-17T06:18:10.401Z,74.44
2018-06-17T06:20:39.920Z,73.44
2018-06-17T06:23:09.403Z,72.76
2018-06-17T06:25:38.864Z,73.13
2018-06-17T06:28:08.817Z,71.90
2018-06-17T06:30:38.978Z,72.15
2018-06-17T06:33:08.236Z,71.67
2018-06-17T06:35:37.778Z,71.04
2018-06-17T06:38:07.669Z,72.08
2018-06-17T06:40:37.387Z,71.38
2018-06-17T06:43:07.638Z,69.94
2018-06-17T06:45:37.539Z,70.11
2018-06-17T06:48:07.023Z,70.86
2018-06-17T06:50:37.165Z,69.96
2018-06-17T06:53:06.922Z,69.79
2018-06-17T06:55:36.891Z,70.37
2018-06-17T06:58:07.500Z,69.68
2018-06-17T07:00:37.011Z,70.86
2018-06-17T07:03:23.531Z,71.77
2018-06-17T07:06:09.977Z,69.58
2018-06-17T07:08:56.288Z,70.04
2018-06-17T07:11:25.845Z,69.59
2018-06-17T07:13:55.311Z,70.00
2018-06-17T07:16:41.748Z,69.58
2018-06-17T07:19:11.344Z,68.95
2018-06-17T07:21:40.836Z,69.34
2018-06-17T07:24:10.466Z,68.57
2018-06-17T07:26:58.108Z,68.73
2018-06-17T07:29:46.130Z,68.45
2018-06-17T07:32:15.568Z,68.07
2018-06-17T07:34:44.822Z,67.91
2018-06-17T07:37:15.094Z,67.99
2018-06-17T07:40:50.181Z,66.63
2018-06-17T07:43:20.037Z,67.68
2018-06-17T07:45:49.509Z,67.81
2018-06-17T07:49:40.100Z,66.20
2018-06-17T07:52:27.863Z,66.53
2018-06-17T07:54:58.737Z,67.40
2018-06-17T07:57:29.590Z,66.52
2018-06-17T07:59:58.900Z,66.87
2018-06-17T08:02:30.808Z,66.04
2018-06-17T08:05:00.364Z,64.39
2018-06-17T08:07:29.538Z,65.42
2018-06-17T08:09:59.350Z,65.26
2018-06-17T08:12:29.213Z,65.98
2018-06-17T08:14:59.412Z,65.57
2018-06-17T08:17:29.069Z,63.85
2018-06-17T08:19:58.611Z,64.17
2018-06-17T08:22:29.047Z,64.70
2018-06-17T08:24:58.294Z,64.40
2018-06-17T08:27:27.980Z,62.45
2018-06-17T08:29:57.490Z,62.38
2018-06-17T08:32:27.922Z,61.64
2018-06-17T08:34:57.590Z,62.31
2018-06-17T08:37:27.059Z,62.64
2018-06-17T08:39:56.535Z,61.58
2018-06-17T08:42:26.338Z,60.49
2018-06-17T08:44:56.133Z,61.74
2018-06-17T08:47:25.657Z,61.28
2018-06-17T08:49:54.853Z,59.95
2018-06-17T08:52:24.308Z,60.60
2018-06-17T08:54:54.437Z,60.09
2018-06-17T08:57:24.883Z,60.28
2018-06-17T08:59:54.965Z,59.71
2018-06-17T09:02:24.876Z,60.56
2018-06-17T09:04:54.928Z,60.31
2018-06-17T09:07:24.533Z,59.30
2018-06-17T09:09:54.973Z,59.17
2018-06-17T09:12:24.653Z,58.43
2018-06-17T09:14:54.585Z,56.68
2018-06-17T09:17:24.121Z,56.74
2018-06-17T09:19:53.590Z,57.90
2018-06-17T09:22:23.730Z,57.49
2018-06-17T09:24:53.239Z,57.41
2018-06-17T09:27:23.048Z,57.86
2018-06-17T09:29:52.557Z,59.32
2018-06-17T09:32:22.000Z,59.10
2018-06-17T09:34:51.749Z,58.79
2018-06-17T09:37:21.385Z,59.21
2018-06-17T09:39:50.913Z,58.69
2018-06-17T09:42:20.109Z,58.22
2018-06-17T09:44:49.702Z,58.13
2018-06-17T09:47:19.192Z,58.39
2018-06-17T09:49:48.696Z,57.77
2018-06-17T09:52:18.615Z,56.79
2018-06-17T09:54:48.149Z,55.46
2018-06-17T09:57:18.570Z,55.44
2018-06-17T09:59:47.984Z,55.14
2018-06-17T10:02:17.421Z,55.72
2018-06-17T10:04:46.966Z,54.80
2018-06-17T10:07:16.570Z,54.54
2018-06-17T10:11:12.940Z,54.76
2018-06-17T10:13:44.550Z,55.62
2018-06-17T10:16:15.073Z,55.77
2018-06-17T10:18:44.922Z,54.50
2018-06-17T10:21:14.569Z,54.11
2018-06-17T10:23:44.070Z,53.37
2018-06-17T10:26:13.568Z,53.25
2018-06-17T10:28:43.136Z,52.99
2018-06-17T10:31:12.768Z,52.94
2018-06-17T10:33:42.488Z,53.22
2018-06-17T10:36:12.794Z,52.70
2018-06-17T10:38:42.309Z,52.85
2018-06-17T10:41:11.806Z,51.62
2018-06-17T10:43:41.468Z,51.80
2018-06-17T10:47:40.401Z,50.34
2018-06-17T10:50:09.983Z,52.07
2018-06-17T10:52:40.381Z,51.55
2018-06-17T10:55:10.212Z,50.71
2018-06-17T10:57:39.624Z,49.29
2018-06-17T11:00:10.401Z,49.72
2018-06-17T11:02:40.692Z,50.46
2018-06-17T11:05:10.775Z,50.63
2018-06-17T11:07:41.224Z,50.97
2018-06-17T11:10:10.400Z,50.46
2018-06-17T11:12:40.428Z,49.21
2018-06-17T11:15:09.920Z,48.14
2018-06-17T11:17:39.423Z,46.28
2018-06-17T11:20:09.054Z,46.77
2018-06-17T11:22:38.620Z,46.72
2018-06-17T11:25:08.147Z,45.77
2018-06-17T11:27:37.662Z,47.23
2018-06-17T11:30:07.379Z,44.87
2018-06-17T11:32:36.949Z,45.16
2018-06-17T11:35:06.519Z,44.28
2018-06-17T11:37:36.194Z,45.49
2018-06-17T11:40:05.817Z,46.15
2018-06-17T11:42:35.770Z,46.55
2018-06-17T11:45:06.029Z,45.20
2018-06-17T11:47:35.620Z,45.76
2018-06-17T11:50:05.161Z,46.14
2018-06-17T11:52:34.640Z,45.01
2018-06-17T11:55:04.296Z,44.97
2018-06-17T11:57:33.951Z,45.45
2018-06-17T12:00:03.562Z,43.83
2018-06-17T12:02:33.080Z,43.08
2018-06-17T12:05:02.553Z,44.92
2018-06-17T12:07:32.129Z,44.17
2018-06-17T12:10:01.602Z,43.79
2018-06-17T12:12:31.103Z,44.04
2018-06-17T12:15:00.608Z,44.97
2018-06-17T12:17:30.443Z,44.41
2018-06-17T12:20:00.035Z,43.89
2018-06-17T12:22:29.949Z,43.33
2018-06-17T12:24:59.466Z,43.64
2018-06-17T12:27:29.301Z,44.00
2018-06-17T12:29:58.793Z,44.13
2018-06-17T12:32:28.277Z,42.92
2018-06-17T12:34:58.035Z,41.98
2018-06-17T12:37:27.610Z,39.94
2018-06-17T12:39:57.128Z,39.76
2018-06-17T12:42:26.704Z,40.21
2018-06-17T12:44:56.311Z,39.54
2018-06-17T12:47:25.778Z,40.99
2018-06-17T12:49:55.657Z,43.49
2018-06-17T12:52:25.193Z,42.52
2018-06-17T12:54:54.616Z,44.12
2018-06-17T12:57:25.009Z,45.69
2018-06-17T12:59:55.110Z,46.47
2018-06-17T13:02:25.246Z,47.31
2018-06-17T13:04:55.001Z,48.19
2018-06-17T13:07:24.370Z,49.16
2018-06-17T13:09:54.192Z,48.95
2018-06-17T13:12:28.591Z,48.58
2018-06-17T13:15:00.301Z,47.80
2018-06-17T13:17:29.978Z,47.11
2018-06-17T13:20:00.108Z,47.06
2018-06-17T13:22:30.200Z,48.10
2018-06-17T13:24:59.697Z,48.96
2018-06-17T13:27:29.577Z,53.71
2018-06-17T13:29:59.095Z,57.81
2018-06-17T13:32:28.753Z,58.06
2018-06-17T13:34:58.253Z,60.95
2018-06-17T13:37:27.816Z,60.72
2018-06-17T13:39:57.811Z,61.31
2018-06-17T13:42:27.120Z,60.61
2018-06-17T13:44:56.401Z,59.96
2018-06-17T13:47:25.785Z,58.28
2018-06-17T13:49:55.281Z,57.25
2018-06-17T13:52:25.879Z,55.92
2018-06-17T13:54:56.590Z,54.57
2018-06-17T13:57:26.011Z,53.07
2018-06-17T13:59:55.549Z,54.20
2018-06-17T14:02:25.054Z,56.08
2018-06-17T14:04:54.518Z,58.62
2018-06-17T14:07:23.785Z,60.54
2018-06-17T14:09:53.612Z,61.85
2018-06-17T14:12:23.073Z,63.06
2018-06-17T14:14:53.392Z,62.41
2018-06-17T14:17:23.142Z,63.60
2018-06-17T14:19:52.633Z,64.23
2018-06-17T14:22:22.162Z,64.21
2018-06-17T14:24:51.813Z,63.62
2018-06-17T14:27:21.917Z,64.54
2018-06-17T14:29:51.213Z,64.98
2018-06-17T14:32:20.417Z,63.40
2018-06-17T14:34:49.737Z,63.71
2018-06-17T14:37:19.339Z,62.03
2018-06-17T14:39:48.660Z,58.90
2018-06-17T14:42:23.425Z,59.37
2018-06-17T14:44:58.240Z,57.10
2018-06-17T14:47:33.097Z,55.99
2018-06-17T14:50:07.862Z,55.39
2018-06-17T14:52:43.155Z,55.83
2018-06-17T14:55:13.289Z,56.69
2018-06-17T14:57:43.228Z,56.92
2018-06-17T15:00:12.906Z,56.69
2018-06-17T15:02:42.772Z,56.41
2018-06-17T15:05:12.341Z,56.41
2018-06-17T15:07:41.922Z,56.25
2018-06-17T15:10:11.450Z,55.54
2018-06-17T15:12:40.962Z,56.95
2018-06-17T15:15:10.524Z,56.52
2018-06-17T15:17:40.999Z,56.39
2018-06-17T15:20:10.747Z,55.49
2018-06-17T15:22:40.336Z,55.53
2018-06-17T15:25:09.599Z,55.23
2018-06-17T15:27:39.114Z,55.82
2018-06-17T15:30:09.768Z,54.91
2018-06-17T15:32:44.647Z,55.23
2018-06-17T15:35:19.987Z,55.09
2018-06-17T15:37:54.689Z,54.88
2018-06-17T15:40:29.172Z,55.02
2018-06-17T15:42:58.690Z,54.43
2018-06-17T15:45:28.254Z,54.07
2018-06-17T15:47:57.749Z,54.02
2018-06-17T15:50:27.311Z,54.11
2018-06-17T15:52:56.928Z,53.73
2018-06-17T15:55:27.031Z,53.22
2018-06-17T15:57:57.148Z,54.40
2018-06-17T16:00:26.760Z,54.35
2018-06-17T16:02:56.543Z,54.24
2018-06-17T16:05:26.562Z,53.91
2018-06-17T16:07:56.187Z,54.29
2018-06-17T16:10:26.189Z,54.75
2018-06-17T16:13:00.938Z,55.06
2018-06-17T16:15:35.899Z,55.58
2018-06-17T16:18:10.680Z,56.19
2018-06-17T16:20:45.340Z,56.26
2018-06-17T16:23:15.594Z,56.42
2018-06-17T16:25:45.103Z,56.03
2018-06-17T16:28:15.644Z,56.09
2018-06-17T16:30:46.860Z,56.75
2018-06-17T16:33:16.765Z,56.35
2018-06-17T16:35:47.018Z,57.02
2018-06-17T16:38:16.328Z,56.81
2018-06-17T16:40:46.532Z,55.86
2018-06-17T16:43:16.135Z,57.00
2018-06-17T16:45:46.433Z,56.29
2018-06-17T16:48:15.963Z,56.16
2018-06-17T16:50:51.010Z,55.87
2018-06-17T16:53:25.822Z,55.48
2018-06-17T16:56:00.412Z,56.03
2018-06-17T16:58:35.035Z,55.44
2018-06-17T17:01:04.600Z,55.01
2018-06-17T17:03:35.072Z,55.52
2018-06-17T17:06:04.645Z,55.82
2018-06-17T17:08:34.099Z,55.31
2018-06-17T17:11:04.171Z,55.07
2018-06-17T17:13:33.470Z,55.47
2018-06-17T17:16:02.846Z,55.93
2018-06-17T17:18:32.349Z,55.60
2018-06-17T17:21:01.824Z,55.80
2018-06-17T17:23:32.005Z,55.77
2018-06-17T17:26:01.503Z,55.70
2018-06-17T17:28:30.928Z,55.98
2018-06-17T17:31:00.124Z,54.80
2018-06-17T17:33:34.842Z,55.39
2018-06-17T17:36:09.643Z,55.55
2018-06-17T17:38:45.435Z,55.35
2018-06-17T17:41:14.927Z,54.92
2018-06-17T17:43:44.628Z,54.41
2018-06-17T17:46:19.220Z,53.92
2018-06-17T17:48:48.747Z,54.25
2018-06-17T17:51:18.347Z,55.02
2018-06-17T17:53:47.988Z,55.20
2018-06-17T17:56:17.645Z,56.07
2018-06-17T17:58:47.211Z,56.61
2018-06-17T18:01:16.642Z,56.70
2018-06-17T18:03:46.201Z,56.11
2018-06-17T18:06:15.905Z,56.35
2018-06-17T18:08:45.387Z,56.16
2018-06-17T18:11:15.386Z,57.34
2018-06-17T18:13:45.776Z,57.28
2018-06-17T18:16:15.344Z,57.88
2018-06-17T18:18:44.907Z,57.61
2018-06-17T18:21:14.530Z,58.48
2018-06-17T18:23:44.120Z,58.37
2018-06-17T18:26:18.835Z,57.86
2018-06-17T18:28:53.554Z,58.39
2018-06-17T18:31:23.034Z,58.11
2018-06-17T18:35:01.824Z,58.12
2018-06-17T18:37:31.103Z,59.36
2018-06-17T18:40:00.575Z,59.06
2018-06-17T18:42:30.030Z,59.73
2018-06-17T18:44:59.227Z,59.86
2018-06-17T18:47:29.312Z,60.10
2018-06-17T18:49:59.561Z,59.73
2018-06-17T18:52:29.133Z,59.69
2018-06-17T18:54:58.849Z,60.10
2018-06-17T18:57:29.014Z,59.49
2018-06-17T18:59:58.766Z,60.25
2018-06-17T19:02:28.424Z,59.60
2018-06-17T19:04:57.958Z,58.01
2018-06-17T19:07:27.750Z,58.40
2018-06-17T19:10:02.726Z,57.88
2018-06-17T19:12:37.699Z,58.06
2018-06-17T19:15:13.721Z,58.10
2018-06-17T19:17:48.462Z,58.47
2018-06-17T19:20:18.040Z,58.86
2018-06-17T19:22:47.628Z,59.40
2018-06-17T19:25:17.197Z,58.56
2018-06-17T19:27:46.785Z,59.68
2018-06-17T19:30:16.336Z,59.48
2018-06-17T19:32:45.930Z,60.50
2018-06-17T19:35:15.436Z,60.46
2018-06-17T19:37:44.999Z,60.44
2018-06-17T19:40:14.561Z,60.86
2018-06-17T19:42:44.067Z,61.03
2018-06-17T19:45:13.782Z,61.46
2018-06-17T19:47:43.357Z,61.42
2018-06-17T19:50:17.979Z,61.95
2018-06-17T19:52:52.652Z,62.38
2018-06-17T19:55:27.419Z,62.44
2018-06-17T19:58:02.075Z,62.86
2018-06-17T20:00:32.050Z,63.34
2018-06-17T20:03:02.287Z,63.19
2018-06-17T20:05:31.847Z,64.17
2018-06-17T20:08:01.366Z,63.89
2018-06-17T20:10:30.819Z,64.63
2018-06-17T20:13:00.945Z,63.99
2018-06-17T20:15:31.391Z,64.77
2018-06-17T20:18:00.926Z,64.76
2018-06-17T20:20:30.967Z,64.95
2018-06-17T20:23:00.349Z,65.65
2018-06-17T20:25:30.280Z,66.12
2018-06-17T20:28:00.083Z,65.44
2018-06-17T20:30:30.290Z,66.11
2018-06-17T20:33:05.212Z,66.51
2018-06-17T20:35:39.867Z,66.39
2018-06-17T20:38:14.558Z,66.49
2018-06-17T20:40:49.331Z,66.46
2018-06-17T20:43:23.808Z,66.86
2018-06-17T20:45:53.660Z,66.91
2018-06-17T20:48:23.128Z,67.76
2018-06-17T20:50:52.586Z,68.04
2018-06-17T20:53:22.078Z,67.92
2018-06-17T20:55:52.010Z,68.91
2018-06-17T20:58:22.161Z,68.31
2018-06-17T21:00:51.714Z,68.99
2018-06-17T21:03:21.201Z,68.75
2018-06-17T21:05:50.827Z,69.75
2018-06-17T21:08:21.151Z,69.60
2018-06-17T21:10:50.647Z,69.57
2018-06-17T21:13:21.219Z,69.87
2018-06-17T21:15:50.496Z,71.55
2018-06-17T21:18:25.828Z,71.24
2018-06-17T21:21:00.900Z,71.74
2018-06-17T21:23:35.360Z,71.70
2018-06-17T21:26:10.035Z,71.35
2018-06-17T21:28:39.210Z,72.63
2018-06-17T21:31:08.700Z,71.95
2018-06-17T21:33:38.702Z,71.91
2018-06-17T21:36:08.248Z,73.00
2018-06-17T21:38:37.789Z,72.71
2018-06-17T21:41:07.283Z,73.33
2018-06-17T21:43:37.254Z,73.96
2018-06-17T21:46:07.617Z,74.93
2018-06-17T21:48:37.145Z,75.31
2018-06-17T21:51:06.919Z,76.73
2018-06-17T21:53:36.741Z,77.10
2018-06-17T21:56:07.012Z,77.02
2018-06-17T21:58:41.930Z,77.73
2018-06-17T22:01:11.497Z,78.58
2018-06-17T22:03:41.298Z,77.68
2018-06-17T22:06:10.886Z,77.82
2018-06-17T22:08:45.486Z,78.01
2018-06-17T22:11:19.962Z,78.70
2018-06-17T22:13:55.003Z,77.48
2018-06-17T22:16:30.297Z,77.84
2018-06-17T22:19:00.287Z,78.58
2018-06-17T22:21:29.861Z,78.26
2018-06-17T22:23:59.844Z,78.69
2018-06-17T22:26:29.396Z,78.91
2018-06-17T22:28:58.982Z,80.36
2018-06-17T22:31:28.454Z,79.75
2018-06-17T22:33:57.738Z,79.97
2018-06-17T22:36:26.926Z,79.28
2018-06-17T22:38:56.374Z,79.42
2018-06-17T22:41:26.033Z,78.51
2018-06-17T22:43:55.653Z,76.17
2018-06-17T22:46:25.238Z,75.01
2018-06-17T22:48:54.705Z,74.63
2018-06-17T22:51:24.568Z,74.04
2018-06-17T22:54:11.246Z,74.54
2018-06-17T22:56:46.036Z,74.87
2018-06-17T22:59:20.845Z,76.24
2018-06-17T23:01:55.695Z,77.87
2018-06-17T23:04:31.041Z,78.83
2018-06-17T23:07:05.566Z,79.58
2018-06-17T23:09:37.084Z,80.39
2018-06-17T23:12:07.010Z,81.18
2018-06-17T23:14:36.826Z,81.09
2018-06-17T23:17:06.458Z,81.20
2018-06-17T23:19:35.588Z,80.01
2018-06-17T23:22:05.215Z,80.79
2018-06-17T23:24:34.710Z,80.62
2018-06-17T23:27:04.281Z,80.34
2018-06-17T23:29:34.232Z,80.02
2018-06-17T23:32:03.860Z,80.21
2018-06-17T23:34:33.410Z,79.26
2018-06-17T23:37:02.635Z,79.22
2018-06-17T23:39:32.859Z,80.68
2018-06-17T23:42:02.582Z,80.77
2018-06-17T23:44:32.127Z,81.16
2018-06-17T23:47:07.606Z,81.56
2018-06-17T23:49:43.022Z,81.73
2018-06-17T23:52:17.731Z,82.78
2018-06-17T23:54:52.642Z,82.20
2018-06-17T23:57:22.693Z,83.64
2018-06-17T23:59:52.178Z,83.46
